Map

Track Data

SID SEASON NUMBER BASIN SUBBASIN NAME ISO_TIME NATURE LAT LON WMO_WIND WMO_PRES WMO_AGENCY TRACK_TYPE DIST2LAND LANDFALL IFLAG USA_AGENCY USA_ATCF_ID USA_LAT USA_LON USA_RECORD USA_STATUS USA_WIND USA_PRES USA_SSHS USA_R34_NE USA_R34_SE USA_R34_SW USA_R34_NW USA_R50_NE USA_R50_SE USA_R50_SW USA_R50_NW USA_R64_NE USA_R64_SE USA_R64_SW USA_R64_NW USA_POCI USA_ROCI USA_RMW USA_EYE TOKYO_LAT TOKYO_LON TOKYO_GRADE TOKYO_WIND TOKYO_PRES TOKYO_R50_DIR TOKYO_R50_LONG TOKYO_R50_SHORT TOKYO_R30_DIR TOKYO_R30_LONG TOKYO_R30_SHORT TOKYO_LAND CMA_LAT CMA_LON CMA_CAT CMA_WIND CMA_PRES HKO_LAT HKO_LON HKO_CAT HKO_WIND HKO_PRES NEWDELHI_LAT NEWDELHI_LON NEWDELHI_GRADE NEWDELHI_WIND NEWDELHI_PRES NEWDELHI_CI NEWDELHI_DP NEWDELHI_POCI REUNION_LAT REUNION_LON REUNION_TYPE REUNION_WIND REUNION_PRES REUNION_TNUM REUNION_CI REUNION_RMW REUNION_R34_NE REUNION_R34_SE REUNION_R34_SW REUNION_R34_NW REUNION_R50_NE REUNION_R50_SE REUNION_R50_SW REUNION_R50_NW REUNION_R64_NE REUNION_R64_SE REUNION_R64_SW REUNION_R64_NW BOM_LAT BOM_LON BOM_TYPE BOM_WIND BOM_PRES BOM_TNUM BOM_CI BOM_RMW BOM_R34_NE BOM_R34_SE BOM_R34_SW BOM_R34_NW BOM_R50_NE BOM_R50_SE BOM_R50_SW BOM_R50_NW BOM_R64_NE BOM_R64_SE BOM_R64_SW BOM_R64_NW BOM_ROCI BOM_POCI BOM_EYE BOM_POS_METHOD BOM_PRES_METHOD NADI_LAT NADI_LON NADI_CAT NADI_WIND NADI_PRES WELLINGTON_LAT WELLINGTON_LON WELLINGTON_WIND WELLINGTON_PRES DS824_LAT DS824_LON DS824_STAGE DS824_WIND DS824_PRES TD9636_LAT TD9636_LON TD9636_STAGE TD9636_WIND TD9636_PRES TD9635_LAT TD9635_LON TD9635_WIND TD9635_PRES TD9635_ROCI NEUMANN_LAT NEUMANN_LON NEUMANN_CLASS NEUMANN_WIND NEUMANN_PRES MLC_LAT MLC_LON MLC_CLASS MLC_WIND MLC_PRES USA_GUST BOM_GUST BOM_GUST_PER REUNION_GUST REUNION_GUST_PER USA_SEAHGT USA_SEARAD_NE USA_SEARAD_SE USA_SEARAD_SW USA_SEARAD_NW STORM_SPEED STORM_DIR
1912274N18138 1912 50 WP MM NOT_NAMED 1912-09-30 09:00:00 NR 18.3000 138.000 main 1504 1487 __________O___ -1 18.3000 138.000 2 17 325
1912274N18138 1912 50 WP MM NOT_NAMED 1912-09-30 12:00:00 NR 19.0029 137.489 main 1493 1421 __________P___ -1 19.0029 137.489 2 17 325
1912274N18138 1912 50 WP MM NOT_NAMED 1912-09-30 15:00:00 NR 19.6841 136.990 main 1411 1328 __________P___ -1 19.6841 136.990 2 16 325
1912274N18138 1912 50 WP MM NOT_NAMED 1912-09-30 18:00:00 NR 20.3232 136.521 main 1328 1250 __________P___ -1 20.3232 136.521 2 15 326
1912274N18138 1912 50 WP MM NOT_NAMED 1912-09-30 21:00:00 NR 20.9000 136.100 main 1250 1186 __________O___ -1 20.9000 136.100 2 13 326
1912274N18138 1912 50 WP MM NOT_NAMED 1912-10-01 00:00:00 NR 21.4043 135.740 main 1182 1128 __________P___ -1 21.4043 135.740 2 12 327
1912274N18138 1912 50 WP MM NOT_NAMED 1912-10-01 03:00:00 NR 21.8642 135.430 main 1118 1069 __________P___ -1 21.8642 135.430 2 11 329
1912274N18138 1912 50 WP MM NOT_NAMED 1912-10-01 06:00:00 NR 22.3170 135.155 main 1069 1005 __________P___ -1 22.3170 135.155 2 11 332
1912274N18138 1912 50 WP MM NOT_NAMED 1912-10-01 09:00:00 NR 22.8000 134.900 main 1005 942 __________O___ -1 22.8000 134.900 2 11 334
1912274N18138 1912 50 WP MM NOT_NAMED 1912-10-01 12:00:00 NR 23.3315 134.627 main 942 872 __________P___ -1 23.3315 134.627 2 12 336
1912274N18138 1912 50 WP MM NOT_NAMED 1912-10-01 15:00:00 NR 23.9025 134.369 main 872 798 __________P___ -1 23.9025 134.369 2 13 339
1912274N18138 1912 50 WP MM NOT_NAMED 1912-10-01 18:00:00 NR 24.5222 134.127 main 798 719 __________P___ -1 24.5222 134.127 2 14 342
1912274N18138 1912 50 WP MM NOT_NAMED 1912-10-01 21:00:00 NR 25.2000 133.900 main 719 640 __________O___ -1 25.2000 133.900 2 15 343
1912274N18138 1912 50 WP MM NOT_NAMED 1912-10-02 00:00:00 NR 25.9466 133.658 main 640 547 __________P___ -1 25.9466 133.658 2 16 345
1912274N18138 1912 50 WP MM NOT_NAMED 1912-10-02 03:00:00 NR 26.7477 133.434 main 547 464 __________P___ -1 26.7477 133.434 2 17 347
1912274N18138 1912 50 WP MM NOT_NAMED 1912-10-02 06:00:00 NR 27.5749 133.243 main 450 371 __________P___ -1 27.5749 133.243 2 17 350
1912274N18138 1912 50 WP MM NOT_NAMED 1912-10-02 09:00:00 NR 28.4000 133.100 main 371 299 __________O___ -1 28.4000 133.100 2 16 351
1912274N18138 1912 50 WP MM NOT_NAMED 1912-10-02 12:00:00 NR 29.1291 132.966 main 299 228 __________P___ -1 29.1291 132.966 2 15 353
1912274N18138 1912 50 WP MM NOT_NAMED 1912-10-02 15:00:00 NR 29.8596 132.890 main 220 168 __________P___ -1 29.8596 132.890 2 15 357
1912274N18138 1912 50 WP MM NOT_NAMED 1912-10-02 18:00:00 NR 30.6352 132.893 main 168 144 __________P___ -1 30.6352 132.893 2 16 3
1912274N18138 1912 50 WP MM NOT_NAMED 1912-10-02 21:00:00 NR 31.5000 133.000 main 133 29 __________O___ -1 31.5000 133.000 2 20 7
1912274N18138 1912 50 WP MM NOT_NAMED 1912-10-03 00:00:00 NR 32.5948 133.182 main 21 0 __________P___ -1 32.5948 133.182 2 23 10
1912274N18138 1912 50 WP MM NOT_NAMED 1912-10-03 03:00:00 NR 33.7658 133.479 main 0 0 __________P___ -1 33.7658 133.479 2 24 14
1912274N18138 1912 50 WP MM NOT_NAMED 1912-10-03 06:00:00 NR 34.9040 133.886 main 0 0 __________P___ -1 34.9040 133.886 2 23 20
1912274N18138 1912 50 WP MM NOT_NAMED 1912-10-03 09:00:00 NR 35.9000 134.400 main 33 33 __________O___ -1 35.9000 134.400 2 19 25
1912274N18138 1912 50 WP MM NOT_NAMED 1912-10-03 12:00:00 NR 36.6269 134.889 main 101 101 __________P___ -1 36.6269 134.889 2 16 34
1912274N18138 1912 50 WP MM NOT_NAMED 1912-10-03 15:00:00 NR 37.2004 135.488 main 106 57 __________P___ -1 37.2004 135.488 2 15 46
1912274N18138 1912 50 WP MM NOT_NAMED 1912-10-03 18:00:00 NR 37.6742 136.243 main 62 47 __________P___ -1 37.6742 136.243 2 16 56
1912274N18138 1912 50 WP MM NOT_NAMED 1912-10-03 21:00:00 NR 38.1000 137.200 main 77 77 __________O___ -1 38.1000 137.200 2 19 63
1912274N18138 1912 50 WP MM NOT_NAMED 1912-10-04 00:00:00 NR 38.5429 138.408 main 84 8 __________P___ -1 38.5429 138.408 2 22 68
1912274N18138 1912 50 WP MM NOT_NAMED 1912-10-04 03:00:00 NR 38.9423 139.816 main 0 0 __________P___ -1 38.9423 139.816 2 24 71
1912274N18138 1912 50 WP MM NOT_NAMED 1912-10-04 06:00:00 NR 39.3195 141.341 main 0 0 __________P___ -1 39.3195 141.341 2 25 72
1912274N18138 1912 50 WP MM NOT_NAMED 1912-10-04 09:00:00 NR 39.7000 142.900 main 71 71 __________O___ -1 39.7000 142.900 2 25 72
1912274N18138 1912 50 WP MM NOT_NAMED 1912-10-04 12:00:00 NR 40.1061 144.427 main 206 206 __________P___ -1 40.1061 144.427 2 25 70
1912274N18138 1912 50 WP MM NOT_NAMED 1912-10-04 15:00:00 NR 40.5334 145.925 main 273 273 __________P___ -1 40.5334 145.925 2 24 69
1912274N18138 1912 50 WP MM NOT_NAMED 1912-10-04 18:00:00 NR 40.9693 147.410 main 290 290 __________P___ -1 40.9693 147.410 2 24 69
1912274N18138 1912 50 WP MM NOT_NAMED 1912-10-04 21:00:00 NR 41.4000 148.900 main 343 __________O___ -1 41.4000 148.900 2 24 69

Digital Typhoon Data and Search

About IBTrACS Database

This database is a web-friendly format of International Best Track Archive for Climate Stewardship (IBTrACS), a global best track data archive curated by NOAA dating back to 1842.

Updated: 2021-10-08